sensor_id;sensor_type;location;lat;lon;timestamp;P1;durP1;ratioP1;P2;durP2;ratioP2
48935;SDS011;34745;52.276;10.528;2023-04-01T00:02:26;4.27;;;1.80;;
48935;SDS011;34745;52.276;10.528;2023-04-01T00:04:55;11.03;;;2.03;;
48935;SDS011;34745;52.276;10.528;2023-04-01T00:07:22;5.33;;;1.80;;
48935;SDS011;34745;52.276;10.528;2023-04-01T00:09:56;9.53;;;2.37;;
48935;SDS011;34745;52.276;10.528;2023-04-01T00:12:23;5.23;;;1.97;;
48935;SDS011;34745;52.276;10.528;2023-04-01T00:14:51;6.03;;;1.73;;
48935;SDS011;34745;52.276;10.528;2023-04-01T00:17:18;7.53;;;1.87;;
48935;SDS011;34745;52.276;10.528;2023-04-01T00:19:46;8.43;;;2.10;;
48935;SDS011;34745;52.276;10.528;2023-04-01T00:22:14;4.17;;;1.87;;
48935;SDS011;34745;52.276;10.528;2023-04-01T00:24:41;7.13;;;2.07;;
48935;SDS011;34745;52.276;10.528;2023-04-01T00:27:09;10.93;;;2.30;;
48935;SDS011;34745;52.276;10.528;2023-04-01T00:29:36;6.63;;;1.83;;
48935;SDS011;34745;52.276;10.528;2023-04-01T00:32:03;6.10;;;2.00;;
48935;SDS011;34745;52.276;10.528;2023-04-01T00:34:31;8.17;;;2.30;;
48935;SDS011;34745;52.276;10.528;2023-04-01T00:36:58;6.43;;;1.83;;
48935;SDS011;34745;52.276;10.528;2023-04-01T00:39:26;4.73;;;1.90;;
48935;SDS011;34745;52.276;10.528;2023-04-01T00:41:55;6.83;;;2.40;;
48935;SDS011;34745;52.276;10.528;2023-04-01T00:44:24;4.97;;;1.73;;
48935;SDS011;34745;52.276;10.528;2023-04-01T00:46:53;5.13;;;2.00;;
48935;SDS011;34745;52.276;10.528;2023-04-01T00:49:22;8.43;;;2.97;;
48935;SDS011;34745;52.276;10.528;2023-04-01T00:51:53;7.57;;;3.10;;
48935;SDS011;34745;52.276;10.528;2023-04-01T00:54:22;10.47;;;3.50;;
48935;SDS011;34745;52.276;10.528;2023-04-01T00:56:53;11.63;;;4.10;;
48935;SDS011;34745;52.276;10.528;2023-04-01T00:59:24;11.00;;;4.37;;
48935;SDS011;34745;52.276;10.528;2023-04-01T01:01:54;11.87;;;5.17;;
48935;SDS011;34745;52.276;10.528;2023-04-01T01:04:22;10.03;;;4.33;;
48935;SDS011;34745;52.276;10.528;2023-04-01T01:06:52;11.30;;;3.67;;
48935;SDS011;34745;52.276;10.528;2023-04-01T01:09:31;8.27;;;3.90;;
48935;SDS011;34745;52.276;10.528;2023-04-01T01:12:10;9.30;;;3.23;;
48935;SDS011;34745;52.276;10.528;2023-04-01T01:14:43;7.67;;;2.93;;
48935;SDS011;34745;52.276;10.528;2023-04-01T01:17:18;7.10;;;2.67;;
48935;SDS011;34745;52.276;10.528;2023-04-01T01:19:57;7.97;;;2.90;;
48935;SDS011;34745;52.276;10.528;2023-04-01T01:22:52;7.50;;;2.90;;
48935;SDS011;34745;52.276;10.528;2023-04-01T01:25:44;5.10;;;2.90;;
48935;SDS011;34745;52.276;10.528;2023-04-01T01:28:28;7.17;;;2.87;;
48935;SDS011;34745;52.276;10.528;2023-04-01T01:31:03;6.47;;;3.00;;
48935;SDS011;34745;52.276;10.528;2023-04-01T01:33:42;6.83;;;2.63;;
48935;SDS011;34745;52.276;10.528;2023-04-01T01:36:25;6.40;;;2.73;;
48935;SDS011;34745;52.276;10.528;2023-04-01T01:38:56;6.13;;;2.73;;
48935;SDS011;34745;52.276;10.528;2023-04-01T01:41:24;10.50;;;2.73;;
48935;SDS011;34745;52.276;10.528;2023-04-01T01:43:53;11.93;;;2.73;;
48935;SDS011;34745;52.276;10.528;2023-04-01T01:46:23;4.87;;;2.13;;
48935;SDS011;34745;52.276;10.528;2023-04-01T01:48:52;6.60;;;2.60;;
48935;SDS011;34745;52.276;10.528;2023-04-01T01:51:21;6.47;;;3.17;;
48935;SDS011;34745;52.276;10.528;2023-04-01T01:53:51;8.80;;;3.03;;
48935;SDS011;34745;52.276;10.528;2023-04-01T01:56:18;5.97;;;2.60;;
48935;SDS011;34745;52.276;10.528;2023-04-01T01:58:50;8.17;;;2.50;;
48935;SDS011;34745;52.276;10.528;2023-04-01T02:01:21;3.87;;;2.03;;
48935;SDS011;34745;52.276;10.528;2023-04-01T02:03:51;6.00;;;2.20;;
48935;SDS011;34745;52.276;10.528;2023-04-01T02:06:19;5.00;;;2.30;;
48935;SDS011;34745;52.276;10.528;2023-04-01T02:08:51;5.80;;;1.83;;
48935;SDS011;34745;52.276;10.528;2023-04-01T02:11:22;12.23;;;4.87;;
48935;SDS011;34745;52.276;10.528;2023-04-01T02:13:54;7.60;;;2.07;;
48935;SDS011;34745;52.276;10.528;2023-04-01T02:16:23;4.23;;;1.87;;
48935;SDS011;34745;52.276;10.528;2023-04-01T02:18:56;2.73;;;1.70;;
48935;SDS011;34745;52.276;10.528;2023-04-01T02:21:27;6.90;;;2.00;;
48935;SDS011;34745;52.276;10.528;2023-04-01T02:23:58;5.73;;;2.00;;
48935;SDS011;34745;52.276;10.528;2023-04-01T02:26:28;5.07;;;1.87;;
48935;SDS011;34745;52.276;10.528;2023-04-01T02:28:56;6.07;;;2.13;;
48935;SDS011;34745;52.276;10.528;2023-04-01T02:31:25;3.73;;;1.83;;
48935;SDS011;34745;52.276;10.528;2023-04-01T02:33:53;4.70;;;1.80;;
48935;SDS011;34745;52.276;10.528;2023-04-01T02:36:21;6.40;;;1.70;;
48935;SDS011;34745;52.276;10.528;2023-04-01T02:38:48;5.50;;;1.50;;
48935;SDS011;34745;52.276;10.528;2023-04-01T02:41:18;8.67;;;2.03;;
48935;SDS011;34745;52.276;10.528;2023-04-01T02:43:46;4.27;;;1.80;;
48935;SDS011;34745;52.276;10.528;2023-04-01T02:46:13;6.57;;;1.83;;
48935;SDS011;34745;52.276;10.528;2023-04-01T02:48:40;9.07;;;2.37;;
48935;SDS011;34745;52.276;10.528;2023-04-01T02:51:07;6.00;;;1.93;;
48935;SDS011;34745;52.276;10.528;2023-04-01T02:53:35;6.80;;;2.07;;
48935;SDS011;34745;52.276;10.528;2023-04-01T02:56:02;5.73;;;1.60;;
48935;SDS011;34745;52.276;10.528;2023-04-01T02:58:30;6.67;;;2.57;;
48935;SDS011;34745;52.276;10.528;2023-04-01T03:00:58;5.63;;;1.80;;
48935;SDS011;34745;52.276;10.528;2023-04-01T03:03:25;6.67;;;1.90;;
48935;SDS011;34745;52.276;10.528;2023-04-01T03:05:52;5.93;;;2.07;;
48935;SDS011;34745;52.276;10.528;2023-04-01T03:08:22;3.17;;;1.70;;
48935;SDS011;34745;52.276;10.528;2023-04-01T03:10:49;5.93;;;2.13;;
48935;SDS011;34745;52.276;10.528;2023-04-01T03:13:16;2.43;;;1.60;;
48935;SDS011;34745;52.276;10.528;2023-04-01T03:15:45;4.00;;;1.73;;
48935;SDS011;34745;52.276;10.528;2023-04-01T03:18:12;2.73;;;1.50;;
48935;SDS011;34745;52.276;10.528;2023-04-01T03:20:39;4.37;;;1.60;;
48935;SDS011;34745;52.276;10.528;2023-04-01T03:23:07;8.57;;;2.20;;
48935;SDS011;34745;52.276;10.528;2023-04-01T03:25:36;5.30;;;2.30;;
48935;SDS011;34745;52.276;10.528;2023-04-01T03:28:16;7.10;;;3.27;;
48935;SDS011;34745;52.276;10.528;2023-04-01T03:30:46;6.03;;;1.70;;
48935;SDS011;34745;52.276;10.528;2023-04-01T03:33:13;6.47;;;1.90;;
48935;SDS011;34745;52.276;10.528;2023-04-01T03:35:48;4.73;;;1.60;;
48935;SDS011;34745;52.276;10.528;2023-04-01T03:38:19;3.97;;;1.60;;
48935;SDS011;34745;52.276;10.528;2023-04-01T03:40:47;6.27;;;1.90;;
48935;SDS011;34745;52.276;10.528;2023-04-01T03:43:14;7.20;;;2.80;;
48935;SDS011;34745;52.276;10.528;2023-04-01T03:45:43;9.37;;;3.37;;
48935;SDS011;34745;52.276;10.528;2023-04-01T03:48:13;5.83;;;1.97;;
48935;SDS011;34745;52.276;10.528;2023-04-01T03:50:40;4.37;;;2.20;;
48935;SDS011;34745;52.276;10.528;2023-04-01T03:53:08;5.53;;;2.00;;
48935;SDS011;34745;52.276;10.528;2023-04-01T03:55:35;3.10;;;1.27;;
48935;SDS011;34745;52.276;10.528;2023-04-01T03:58:03;3.93;;;1.93;;
48935;SDS011;34745;52.276;10.528;2023-04-01T04:00:32;3.80;;;1.47;;
48935;SDS011;34745;52.276;10.528;2023-04-01T04:03:01;6.47;;;1.90;;
48935;SDS011;34745;52.276;10.528;2023-04-01T04:05:28;4.30;;;1.50;;
48935;SDS011;34745;52.276;10.528;2023-04-01T04:07:56;4.83;;;1.70;;
48935;SDS011;34745;52.276;10.528;2023-04-01T04:10:23;5.50;;;1.50;;
48935;SDS011;34745;52.276;10.528;2023-04-01T04:12:51;6.47;;;2.17;;
48935;SDS011;34745;52.276;10.528;2023-04-01T04:15:18;4.60;;;1.40;;
48935;SDS011;34745;52.276;10.528;2023-04-01T04:17:46;5.33;;;1.67;;
48935;SDS011;34745;52.276;10.528;2023-04-01T04:20:15;5.50;;;1.70;;
48935;SDS011;34745;52.276;10.528;2023-04-01T04:22:42;3.50;;;1.53;;
48935;SDS011;34745;52.276;10.528;2023-04-01T04:25:09;4.27;;;1.60;;
48935;SDS011;34745;52.276;10.528;2023-04-01T04:27:36;6.00;;;1.63;;
48935;SDS011;34745;52.276;10.528;2023-04-01T04:30:04;6.87;;;1.77;;
48935;SDS011;34745;52.276;10.528;2023-04-01T04:32:32;7.90;;;1.70;;
48935;SDS011;34745;52.276;10.528;2023-04-01T04:34:59;5.30;;;1.80;;
48935;SDS011;34745;52.276;10.528;2023-04-01T04:37:28;4.10;;;1.70;;
48935;SDS011;34745;52.276;10.528;2023-04-01T04:39:55;4.67;;;1.47;;
48935;SDS011;34745;52.276;10.528;2023-04-01T04:42:22;5.07;;;1.53;;
48935;SDS011;34745;52.276;10.528;2023-04-01T04:44:49;5.77;;;1.90;;
48935;SDS011;34745;52.276;10.528;2023-04-01T04:47:16;3.43;;;1.43;;
48935;SDS011;34745;52.276;10.528;2023-04-01T04:49:43;5.77;;;1.63;;
48935;SDS011;34745;52.276;10.528;2023-04-01T04:52:10;6.23;;;1.80;;
48935;SDS011;34745;52.276;10.528;2023-04-01T04:54:39;4.17;;;1.47;;
48935;SDS011;34745;52.276;10.528;2023-04-01T04:57:06;5.63;;;1.87;;
48935;SDS011;34745;52.276;10.528;2023-04-01T04:59:33;4.07;;;1.30;;
48935;SDS011;34745;52.276;10.528;2023-04-01T05:02:00;4.50;;;1.67;;
48935;SDS011;34745;52.276;10.528;2023-04-01T05:04:27;3.20;;;1.43;;
48935;SDS011;34745;52.276;10.528;2023-04-01T05:06:54;3.07;;;1.30;;
48935;SDS011;34745;52.276;10.528;2023-04-01T05:09:21;3.53;;;1.57;;
48935;SDS011;34745;52.276;10.528;2023-04-01T05:11:49;4.37;;;1.20;;
48935;SDS011;34745;52.276;10.528;2023-04-01T05:14:16;4.40;;;1.47;;
48935;SDS011;34745;52.276;10.528;2023-04-01T05:16:44;2.13;;;1.27;;
48935;SDS011;34745;52.276;10.528;2023-04-01T05:19:11;4.00;;;1.20;;
48935;SDS011;34745;52.276;10.528;2023-04-01T05:21:38;4.77;;;1.40;;
48935;SDS011;34745;52.276;10.528;2023-04-01T05:24:07;3.40;;;1.30;;
48935;SDS011;34745;52.276;10.528;2023-04-01T05:26:35;4.63;;;1.53;;
48935;SDS011;34745;52.276;10.528;2023-04-01T05:29:04;3.57;;;1.30;;
48935;SDS011;34745;52.276;10.528;2023-04-01T05:31:32;6.40;;;1.50;;
48935;SDS011;34745;52.276;10.528;2023-04-01T05:33:59;2.03;;;1.37;;
48935;SDS011;34745;52.276;10.528;2023-04-01T05:36:26;1.70;;;1.20;;
48935;SDS011;34745;52.276;10.528;2023-04-01T05:38:54;2.77;;;1.43;;
48935;SDS011;34745;52.276;10.528;2023-04-01T05:41:21;1.97;;;1.37;;
48935;SDS011;34745;52.276;10.528;2023-04-01T05:43:48;2.33;;;1.40;;
48935;SDS011;34745;52.276;10.528;2023-04-01T05:46:17;3.30;;;1.33;;
48935;SDS011;34745;52.276;10.528;2023-04-01T05:48:44;2.67;;;1.20;;
48935;SDS011;34745;52.276;10.528;2023-04-01T05:51:12;1.80;;;1.60;;
48935;SDS011;34745;52.276;10.528;2023-04-01T05:53:39;3.80;;;1.50;;
48935;SDS011;34745;52.276;10.528;2023-04-01T05:56:07;2.47;;;1.37;;
48935;SDS011;34745;52.276;10.528;2023-04-01T05:58:35;3.03;;;1.50;;
48935;SDS011;34745;52.276;10.528;2023-04-01T06:01:03;3.93;;;1.57;;
48935;SDS011;34745;52.276;10.528;2023-04-01T06:03:40;4.60;;;1.60;;
48935;SDS011;34745;52.276;10.528;2023-04-01T06:06:10;5.23;;;1.77;;
48935;SDS011;34745;52.276;10.528;2023-04-01T06:08:40;2.63;;;1.60;;
48935;SDS011;34745;52.276;10.528;2023-04-01T06:11:13;5.13;;;1.60;;
48935;SDS011;34745;52.276;10.528;2023-04-01T06:13:53;4.13;;;1.87;;
48935;SDS011;34745;52.276;10.528;2023-04-01T06:16:34;3.30;;;1.60;;
48935;SDS011;34745;52.276;10.528;2023-04-01T06:19:17;4.97;;;1.47;;
48935;SDS011;34745;52.276;10.528;2023-04-01T06:22:09;6.10;;;1.93;;
48935;SDS011;34745;52.276;10.528;2023-04-01T06:24:59;4.13;;;1.50;;
48935;SDS011;34745;52.276;10.528;2023-04-01T06:27:51;4.27;;;1.63;;
48935;SDS011;34745;52.276;10.528;2023-04-01T06:30:35;4.97;;;2.10;;
48935;SDS011;34745;52.276;10.528;2023-04-01T06:33:11;5.17;;;1.90;;
48935;SDS011;34745;52.276;10.528;2023-04-01T06:35:58;3.87;;;1.50;;
48935;SDS011;34745;52.276;10.528;2023-04-01T06:38:53;3.40;;;1.37;;
48935;SDS011;34745;52.276;10.528;2023-04-01T06:41:35;3.63;;;2.00;;
48935;SDS011;34745;52.276;10.528;2023-04-01T06:44:22;4.20;;;1.60;;
48935;SDS011;34745;52.276;10.528;2023-04-01T06:46:59;7.17;;;2.17;;
48935;SDS011;34745;52.276;10.528;2023-04-01T06:49:37;2.87;;;1.77;;
48935;SDS011;34745;52.276;10.528;2023-04-01T06:52:19;3.10;;;1.43;;
48935;SDS011;34745;52.276;10.528;2023-04-01T06:54:53;2.80;;;1.50;;
48935;SDS011;34745;52.276;10.528;2023-04-01T06:57:29;3.17;;;1.40;;
48935;SDS011;34745;52.276;10.528;2023-04-01T07:00:00;4.80;;;1.10;;
48935;SDS011;34745;52.276;10.528;2023-04-01T07:02:32;1.93;;;1.20;;
48935;SDS011;34745;52.276;10.528;2023-04-01T07:05:05;1.83;;;1.37;;
48935;SDS011;34745;52.276;10.528;2023-04-01T07:07:36;4.13;;;1.33;;
48935;SDS011;34745;52.276;10.528;2023-04-01T07:10:11;4.30;;;1.23;;
48935;SDS011;34745;52.276;10.528;2023-04-01T07:12:43;3.10;;;1.20;;
48935;SDS011;34745;52.276;10.528;2023-04-01T07:15:17;2.63;;;1.23;;
48935;SDS011;34745;52.276;10.528;2023-04-01T07:17:47;2.37;;;1.30;;
48935;SDS011;34745;52.276;10.528;2023-04-01T07:20:20;2.63;;;1.30;;
48935;SDS011;34745;52.276;10.528;2023-04-01T07:22:54;12.83;;;7.80;;
48935;SDS011;34745;52.276;10.528;2023-04-01T07:25:25;2.83;;;1.30;;
48935;SDS011;34745;52.276;10.528;2023-04-01T07:27:56;5.13;;;3.20;;
48935;SDS011;34745;52.276;10.528;2023-04-01T07:30:26;1.37;;;1.20;;
48935;SDS011;34745;52.276;10.528;2023-04-01T07:33:01;4.87;;;1.87;;
48935;SDS011;34745;52.276;10.528;2023-04-01T07:35:33;4.43;;;2.33;;
48935;SDS011;34745;52.276;10.528;2023-04-01T07:38:10;2.67;;;1.10;;
48935;SDS011;34745;52.276;10.528;2023-04-01T07:40:46;1.10;;;0.80;;
48935;SDS011;34745;52.276;10.528;2023-04-01T07:43:25;1.20;;;1.00;;
48935;SDS011;34745;52.276;10.528;2023-04-01T07:46:14;2.10;;;1.07;;
48935;SDS011;34745;52.276;10.528;2023-04-01T07:48:50;1.13;;;0.90;;
48935;SDS011;34745;52.276;10.528;2023-04-01T07:51:23;2.30;;;1.00;;
48935;SDS011;34745;52.276;10.528;2023-04-01T07:53:59;1.50;;;0.93;;
48935;SDS011;34745;52.276;10.528;2023-04-01T07:56:34;1.73;;;1.00;;
48935;SDS011;34745;52.276;10.528;2023-04-01T07:59:08;1.23;;;1.10;;
48935;SDS011;34745;52.276;10.528;2023-04-01T08:01:44;2.70;;;1.07;;
48935;SDS011;34745;52.276;10.528;2023-04-01T08:04:23;1.43;;;1.10;;
48935;SDS011;34745;52.276;10.528;2023-04-01T08:07:01;3.10;;;1.00;;
48935;SDS011;34745;52.276;10.528;2023-04-01T08:09:37;3.00;;;1.30;;
48935;SDS011;34745;52.276;10.528;2023-04-01T08:12:13;2.70;;;1.10;;
48935;SDS011;34745;52.276;10.528;2023-04-01T08:14:52;4.70;;;1.30;;
48935;SDS011;34745;52.276;10.528;2023-04-01T08:17:28;3.90;;;1.20;;
48935;SDS011;34745;52.276;10.528;2023-04-01T08:20:07;2.23;;;1.30;;
48935;SDS011;34745;52.276;10.528;2023-04-01T08:22:45;1.67;;;0.90;;
48935;SDS011;34745;52.276;10.528;2023-04-01T08:25:19;3.87;;;1.00;;
48935;SDS011;34745;52.276;10.528;2023-04-01T08:27:51;2.63;;;0.70;;
48935;SDS011;34745;52.276;10.528;2023-04-01T08:30:23;2.63;;;1.03;;
48935;SDS011;34745;52.276;10.528;2023-04-01T08:32:52;2.10;;;1.03;;
48935;SDS011;34745;52.276;10.528;2023-04-01T08:35:26;1.50;;;0.90;;
48935;SDS011;34745;52.276;10.528;2023-04-01T08:37:59;3.30;;;1.00;;
48935;SDS011;34745;52.276;10.528;2023-04-01T08:40:49;1.87;;;0.90;;
48935;SDS011;34745;52.276;10.528;2023-04-01T08:43:28;1.40;;;1.00;;
48935;SDS011;34745;52.276;10.528;2023-04-01T08:46:16;1.63;;;0.93;;
48935;SDS011;34745;52.276;10.528;2023-04-01T08:48:59;1.90;;;0.90;;
48935;SDS011;34745;52.276;10.528;2023-04-01T08:52:05;3.50;;;0.90;;
48935;SDS011;34745;52.276;10.528;2023-04-01T08:55:01;3.00;;;1.10;;
48935;SDS011;34745;52.276;10.528;2023-04-01T08:57:52;0.80;;;0.80;;
48935;SDS011;34745;52.276;10.528;2023-04-01T09:00:30;0.93;;;0.90;;
48935;SDS011;34745;52.276;10.528;2023-04-01T09:03:02;2.23;;;1.10;;
48935;SDS011;34745;52.276;10.528;2023-04-01T09:06:00;3.77;;;1.10;;
48935;SDS011;34745;52.276;10.528;2023-04-01T09:08:42;3.87;;;0.90;;
48935;SDS011;34745;52.276;10.528;2023-04-01T09:11:28;2.70;;;1.10;;
48935;SDS011;34745;52.276;10.528;2023-04-01T09:17:13;2.60;;;1.30;;
48935;SDS011;34745;52.276;10.528;2023-04-01T09:20:06;1.40;;;1.30;;
48935;SDS011;34745;52.276;10.528;2023-04-01T09:23:08;2.30;;;1.10;;
48935;SDS011;34745;52.276;10.528;2023-04-01T09:28:38;2.40;;;1.10;;
48935;SDS011;34745;52.276;10.528;2023-04-01T09:31:24;1.30;;;1.00;;
48935;SDS011;34745;52.276;10.528;2023-04-01T09:34:10;1.60;;;1.00;;
48935;SDS011;34745;52.276;10.528;2023-04-01T09:36:54;4.03;;;1.10;;
48935;SDS011;34745;52.276;10.528;2023-04-01T09:39:35;1.23;;;1.13;;
48935;SDS011;34745;52.276;10.528;2023-04-01T09:42:10;1.33;;;1.10;;
48935;SDS011;34745;52.276;10.528;2023-04-01T09:44:43;0.80;;;0.80;;
48935;SDS011;34745;52.276;10.528;2023-04-01T09:47:27;0.60;;;0.60;;
48935;SDS011;34745;52.276;10.528;2023-04-01T09:50:17;0.93;;;0.60;;
48935;SDS011;34745;52.276;10.528;2023-04-01T09:52:58;2.73;;;1.00;;
48935;SDS011;34745;52.276;10.528;2023-04-01T09:58:33;0.70;;;0.70;;
48935;SDS011;34745;52.276;10.528;2023-04-01T10:01:27;1.37;;;0.70;;
48935;SDS011;34745;52.276;10.528;2023-04-01T10:10:33;2.27;;;0.90;;
48935;SDS011;34745;52.276;10.528;2023-04-01T10:16:24;2.47;;;1.63;;
48935;SDS011;34745;52.276;10.528;2023-04-01T10:19:10;3.27;;;1.40;;
48935;SDS011;34745;52.276;10.528;2023-04-01T10:22:04;2.17;;;1.63;;
48935;SDS011;34745;52.276;10.528;2023-04-01T10:25:18;4.17;;;2.10;;
48935;SDS011;34745;52.276;10.528;2023-04-01T10:31:20;8.97;;;5.40;;
48935;SDS011;34745;52.276;10.528;2023-04-01T10:34:33;2.80;;;2.40;;
48935;SDS011;34745;52.276;10.528;2023-04-01T10:37:32;6.23;;;1.40;;
48935;SDS011;34745;52.276;10.528;2023-04-01T10:40:13;2.53;;;1.53;;
48935;SDS011;34745;52.276;10.528;2023-04-01T10:49:28;1.73;;;1.00;;
48935;SDS011;34745;52.276;10.528;2023-04-01T10:55:50;1.33;;;0.90;;
48935;SDS011;34745;52.276;10.528;2023-04-01T10:58:46;0.60;;;0.60;;
48935;SDS011;34745;52.276;10.528;2023-04-01T11:01:56;1.60;;;1.23;;
48935;SDS011;34745;52.276;10.528;2023-04-01T11:04:46;0.83;;;0.70;;
48935;SDS011;34745;52.276;10.528;2023-04-01T11:11:01;0.97;;;0.77;;
48935;SDS011;34745;52.276;10.528;2023-04-01T11:20:02;1.03;;;0.90;;
48935;SDS011;34745;52.276;10.528;2023-04-01T11:22:57;0.63;;;0.63;;
48935;SDS011;34745;52.276;10.528;2023-04-01T11:26:04;0.73;;;0.60;;
48935;SDS011;34745;52.276;10.528;2023-04-01T11:31:45;4.03;;;1.20;;
48935;SDS011;34745;52.276;10.528;2023-04-01T11:34:28;1.70;;;1.23;;
48935;SDS011;34745;52.276;10.528;2023-04-01T11:37:12;1.60;;;0.90;;
48935;SDS011;34745;52.276;10.528;2023-04-01T11:39:58;0.60;;;0.60;;
48935;SDS011;34745;52.276;10.528;2023-04-01T11:42:34;1.37;;;0.90;;
48935;SDS011;34745;52.276;10.528;2023-04-01T11:45:15;2.73;;;0.87;;
48935;SDS011;34745;52.276;10.528;2023-04-01T11:47:55;1.53;;;0.60;;
48935;SDS011;34745;52.276;10.528;2023-04-01T11:50:41;1.20;;;0.93;;
48935;SDS011;34745;52.276;10.528;2023-04-01T11:53:25;1.67;;;0.70;;
48935;SDS011;34745;52.276;10.528;2023-04-01T11:56:03;10.07;;;5.17;;
48935;SDS011;34745;52.276;10.528;2023-04-01T11:58:44;5.43;;;2.90;;
48935;SDS011;34745;52.276;10.528;2023-04-01T12:01:25;2.67;;;2.10;;
48935;SDS011;34745;52.276;10.528;2023-04-01T12:07:06;1.10;;;1.00;;
48935;SDS011;34745;52.276;10.528;2023-04-01T12:09:46;1.27;;;1.10;;
48935;SDS011;34745;52.276;10.528;2023-04-01T12:12:22;1.20;;;0.90;;
48935;SDS011;34745;52.276;10.528;2023-04-01T12:15:00;1.30;;;1.20;;
48935;SDS011;34745;52.276;10.528;2023-04-01T12:17:39;1.70;;;1.10;;
48935;SDS011;34745;52.276;10.528;2023-04-01T12:20:28;1.03;;;1.00;;
48935;SDS011;34745;52.276;10.528;2023-04-01T12:23:06;1.80;;;1.10;;
48935;SDS011;34745;52.276;10.528;2023-04-01T12:28:37;1.97;;;1.00;;
48935;SDS011;34745;52.276;10.528;2023-04-01T12:31:17;1.60;;;1.10;;
48935;SDS011;34745;52.276;10.528;2023-04-01T12:33:59;1.87;;;1.20;;
48935;SDS011;34745;52.276;10.528;2023-04-01T12:36:47;2.73;;;1.20;;
48935;SDS011;34745;52.276;10.528;2023-04-01T12:39:33;2.20;;;0.90;;
48935;SDS011;34745;52.276;10.528;2023-04-01T12:42:13;0.93;;;0.93;;
48935;SDS011;34745;52.276;10.528;2023-04-01T12:45:00;1.50;;;1.00;;
48935;SDS011;34745;52.276;10.528;2023-04-01T12:50:40;1.67;;;1.50;;
48935;SDS011;34745;52.276;10.528;2023-04-01T12:53:37;2.23;;;1.80;;
48935;SDS011;34745;52.276;10.528;2023-04-01T12:56:23;2.20;;;1.37;;
48935;SDS011;34745;52.276;10.528;2023-04-01T12:59:08;3.00;;;1.70;;
48935;SDS011;34745;52.276;10.528;2023-04-01T13:02:10;1.60;;;1.50;;
48935;SDS011;34745;52.276;10.528;2023-04-01T13:04:45;3.10;;;1.20;;
48935;SDS011;34745;52.276;10.528;2023-04-01T13:10:13;2.83;;;1.70;;
48935;SDS011;34745;52.276;10.528;2023-04-01T13:12:59;6.67;;;1.53;;
48935;SDS011;34745;52.276;10.528;2023-04-01T13:15:41;2.87;;;1.60;;
48935;SDS011;34745;52.276;10.528;2023-04-01T13:18:15;2.90;;;1.80;;
48935;SDS011;34745;52.276;10.528;2023-04-01T13:20:49;2.37;;;2.17;;
48935;SDS011;34745;52.276;10.528;2023-04-01T13:23:24;3.30;;;2.57;;
48935;SDS011;34745;52.276;10.528;2023-04-01T13:26:04;2.07;;;1.97;;
48935;SDS011;34745;52.276;10.528;2023-04-01T13:28:40;8.63;;;1.83;;
48935;SDS011;34745;52.276;10.528;2023-04-01T13:31:17;2.87;;;1.90;;
48935;SDS011;34745;52.276;10.528;2023-04-01T13:33:59;1.90;;;1.70;;
48935;SDS011;34745;52.276;10.528;2023-04-01T13:36:36;2.70;;;2.30;;
48935;SDS011;34745;52.276;10.528;2023-04-01T13:39:23;3.10;;;1.70;;
48935;SDS011;34745;52.276;10.528;2023-04-01T13:42:11;2.20;;;1.50;;
48935;SDS011;34745;52.276;10.528;2023-04-01T13:44:45;3.87;;;1.20;;
48935;SDS011;34745;52.276;10.528;2023-04-01T13:47:25;1.30;;;1.17;;
48935;SDS011;34745;52.276;10.528;2023-04-01T13:50:22;1.47;;;1.30;;
48935;SDS011;34745;52.276;10.528;2023-04-01T13:53:11;1.60;;;1.60;;
48935;SDS011;34745;52.276;10.528;2023-04-01T13:56:02;1.43;;;1.40;;
48935;SDS011;34745;52.276;10.528;2023-04-01T13:58:43;1.10;;;1.10;;
48935;SDS011;34745;52.276;10.528;2023-04-01T14:01:44;1.37;;;1.20;;
48935;SDS011;34745;52.276;10.528;2023-04-01T14:04:41;1.43;;;1.43;;
48935;SDS011;34745;52.276;10.528;2023-04-01T14:07:31;1.30;;;1.20;;
48935;SDS011;34745;52.276;10.528;2023-04-01T14:10:08;1.00;;;1.00;;
48935;SDS011;34745;52.276;10.528;2023-04-01T14:12:47;1.40;;;1.30;;
48935;SDS011;34745;52.276;10.528;2023-04-01T14:15:25;1.07;;;1.03;;
48935;SDS011;34745;52.276;10.528;2023-04-01T14:18:10;1.40;;;1.00;;
48935;SDS011;34745;52.276;10.528;2023-04-01T14:20:52;1.27;;;1.20;;
48935;SDS011;34745;52.276;10.528;2023-04-01T14:23:35;1.00;;;1.00;;
48935;SDS011;34745;52.276;10.528;2023-04-01T14:26:14;2.30;;;2.10;;
48935;SDS011;34745;52.276;10.528;2023-04-01T14:29:02;3.53;;;2.90;;
48935;SDS011;34745;52.276;10.528;2023-04-01T14:31:48;2.20;;;2.00;;
48935;SDS011;34745;52.276;10.528;2023-04-01T14:34:28;1.37;;;1.27;;
48935;SDS011;34745;52.276;10.528;2023-04-01T14:37:10;1.17;;;0.97;;
48935;SDS011;34745;52.276;10.528;2023-04-01T14:40:03;1.30;;;1.20;;
48935;SDS011;34745;52.276;10.528;2023-04-01T14:42:49;1.20;;;1.20;;
48935;SDS011;34745;52.276;10.528;2023-04-01T14:45:40;1.33;;;1.23;;
48935;SDS011;34745;52.276;10.528;2023-04-01T14:48:17;1.43;;;1.30;;
48935;SDS011;34745;52.276;10.528;2023-04-01T14:50:52;1.27;;;1.20;;
48935;SDS011;34745;52.276;10.528;2023-04-01T14:53:27;1.30;;;1.30;;
48935;SDS011;34745;52.276;10.528;2023-04-01T14:55:58;1.30;;;1.30;;
48935;SDS011;34745;52.276;10.528;2023-04-01T14:58:40;1.20;;;1.20;;
48935;SDS011;34745;52.276;10.528;2023-04-01T15:01:17;3.67;;;1.40;;
48935;SDS011;34745;52.276;10.528;2023-04-01T15:03:58;2.07;;;1.97;;
48935;SDS011;34745;52.276;10.528;2023-04-01T15:06:40;2.10;;;2.00;;
48935;SDS011;34745;52.276;10.528;2023-04-01T15:09:18;1.80;;;1.70;;
48935;SDS011;34745;52.276;10.528;2023-04-01T15:11:56;1.60;;;1.50;;
48935;SDS011;34745;52.276;10.528;2023-04-01T15:17:41;1.43;;;1.43;;
48935;SDS011;34745;52.276;10.528;2023-04-01T15:20:22;1.87;;;1.77;;
48935;SDS011;34745;52.276;10.528;2023-04-01T15:23:02;1.80;;;1.70;;
48935;SDS011;34745;52.276;10.528;2023-04-01T15:25:45;2.03;;;1.87;;
48935;SDS011;34745;52.276;10.528;2023-04-01T15:28:25;1.90;;;1.70;;
48935;SDS011;34745;52.276;10.528;2023-04-01T15:30:59;2.10;;;1.90;;
48935;SDS011;34745;52.276;10.528;2023-04-01T15:33:36;2.03;;;1.93;;
48935;SDS011;34745;52.276;10.528;2023-04-01T15:36:15;1.80;;;1.70;;
48935;SDS011;34745;52.276;10.528;2023-04-01T15:38:50;3.33;;;1.50;;
48935;SDS011;34745;52.276;10.528;2023-04-01T15:41:22;1.80;;;1.70;;
48935;SDS011;34745;52.276;10.528;2023-04-01T15:43:55;2.10;;;2.00;;
48935;SDS011;34745;52.276;10.528;2023-04-01T15:46:41;1.87;;;1.77;;
48935;SDS011;34745;52.276;10.528;2023-04-01T15:49:15;4.83;;;2.07;;
48935;SDS011;34745;52.276;10.528;2023-04-01T15:52:05;1.60;;;1.60;;
48935;SDS011;34745;52.276;10.528;2023-04-01T15:57:52;2.20;;;1.43;;
48935;SDS011;34745;52.276;10.528;2023-04-01T16:00:29;1.70;;;1.60;;
48935;SDS011;34745;52.276;10.528;2023-04-01T16:03:09;1.30;;;1.30;;
48935;SDS011;34745;52.276;10.528;2023-04-01T16:05:50;1.40;;;1.30;;
48935;SDS011;34745;52.276;10.528;2023-04-01T16:08:48;1.30;;;1.23;;
48935;SDS011;34745;52.276;10.528;2023-04-01T16:11:29;1.80;;;1.70;;
48935;SDS011;34745;52.276;10.528;2023-04-01T16:14:14;1.83;;;1.70;;
48935;SDS011;34745;52.276;10.528;2023-04-01T16:16:55;1.33;;;1.33;;
48935;SDS011;34745;52.276;10.528;2023-04-01T16:19:33;10.73;;;1.50;;
48935;SDS011;34745;52.276;10.528;2023-04-01T16:22:13;1.40;;;1.30;;
48935;SDS011;34745;52.276;10.528;2023-04-01T16:24:46;1.37;;;1.37;;
48935;SDS011;34745;52.276;10.528;2023-04-01T16:27:18;1.63;;;1.40;;
48935;SDS011;34745;52.276;10.528;2023-04-01T16:29:55;1.50;;;1.40;;
48935;SDS011;34745;52.276;10.528;2023-04-01T16:32:36;2.23;;;1.80;;